Time;durP1;ratioP1;P1;durP2;ratioP2;P2;SDS_P1;SDS_P2;PMS_P1;PMS_P2;Temp;Humidity;BMP_temperature;BMP_pressure;BME280_temperature;BME280_humidity;BME280_pressure;Samples;Min_cycle;Max_cycle;Signal;HPM_P1;HPM_P2
2023/01/18 00:00:45;;;;;;;41.28;24.75;;;;;;;7.51;99.70;99733.21;1670606;86;21198;-85
2023/01/18 00:03:51;;;;;;;37.17;23.40;;;;;;;7.51;100.00;99729.13;1667303;86;21819;-86
2023/01/18 00:06:56;;;;;;;35.33;22.90;;;;;;;7.42;99.92;99726.40;1665667;86;21229;-87
2023/01/18 00:10:02;;;;;;;35.52;23.87;;;;;;;7.48;99.69;99730.34;1664953;86;21230;-80
2023/01/18 00:13:08;;;;;;;35.45;23.52;;;;;;;7.62;99.49;99736.94;1668417;84;21196;-83
2023/01/18 00:16:21;;;;;;;35.30;23.70;;;;;;;7.65;98.55;99722.48;1684362;85;21763;-83
2023/01/18 00:19:27;;;;;;;33.73;23.45;;;;;;;7.57;98.19;99739.32;1700183;84;21188;-82
2023/01/18 00:22:33;;;;;;;33.13;21.93;;;;;;;7.49;98.66;99742.91;1700461;84;21211;-85
2023/01/18 00:25:38;;;;;;;34.18;22.02;;;;;;;7.45;99.17;99737.98;1700146;84;21777;-85
2023/01/18 00:28:44;;;;;;;36.73;24.37;;;;;;;7.41;99.23;99743.75;1687655;84;21790;-83
2023/01/18 00:31:49;;;;;;;36.15;22.13;;;;;;;7.40;99.65;99746.14;1672269;86;21241;-86
2023/01/18 00:34:54;;;;;;;36.83;22.58;;;;;;;7.39;99.99;99737.64;1672414;86;21221;-85
2023/01/18 00:37:59;;;;;;;29.12;20.92;;;;;;;7.42;100.00;99740.00;1667934;84;21245;-87
2023/01/18 00:41:05;;;;;;;34.20;20.75;;;;;;;7.40;100.00;99748.02;1672480;86;21775;-86
2023/01/18 00:44:11;;;;;;;32.90;20.75;;;;;;;7.43;100.00;99749.89;1672126;86;21248;-86
2023/01/18 00:47:17;;;;;;;30.23;21.50;;;;;;;7.49;100.00;99747.00;1671193;86;21935;-87
2023/01/18 00:50:24;;;;;;;31.80;21.62;;;;;;;7.55;100.00;99751.75;1672536;86;21771;-86
2023/01/18 00:53:30;;;;;;;31.85;21.50;;;;;;;7.53;100.00;99746.12;1672538;86;21281;-85
2023/01/18 00:56:36;;;;;;;36.42;20.88;;;;;;;7.49;100.00;99757.03;1671757;86;21205;-86
2023/01/18 00:59:41;;;;;;;33.28;21.80;;;;;;;7.45;100.00;99757.03;1672455;86;21221;-86
2023/01/18 01:02:46;;;;;;;32.38;21.73;;;;;;;7.41;100.00;99753.28;1670957;84;21269;-86
2023/01/18 01:09:18;;;;;;;33.08;21.82;;;;;;;7.38;100.00;99748.16;1672366;86;21503;-87
2023/01/18 01:26:12;;;;;;;36.73;22.80;;;;;;;7.44;100.00;99760.27;1672378;86;21257;-86
2023/01/18 01:29:18;;;;;;;33.10;22.02;;;;;;;7.39;100.00;99753.97;1672396;86;21801;-85
2023/01/18 01:32:24;;;;;;;34.30;21.90;;;;;;;7.39;100.00;99745.80;1672329;86;21289;-86
2023/01/18 01:35:23;;;;;;;33.00;23.07;;;;;;;7.38;100.00;99741.36;1672425;86;21209;-87
2023/01/18 01:38:28;;;;;;;34.38;23.10;;;;;;;7.35;100.00;99753.11;1681019;83;21812;-86
2023/01/18 01:41:40;;;;;;;34.50;22.93;;;;;;;7.30;100.00;99748.18;1701795;84;21189;-87
2023/01/18 01:44:55;;;;;;;30.00;21.50;;;;;;;7.29;100.00;99754.65;1701867;84;21233;-85
2023/01/18 01:48:02;;;;;;;34.75;22.93;;;;;;;7.26;100.00;99761.77;1702378;84;21257;-87
2023/01/18 01:51:07;;;;;;;33.02;21.77;;;;;;;7.34;100.00;99764.52;1703084;84;21209;-87
2023/01/18 01:54:28;;;;;;;35.03;21.17;;;;;;;7.34;99.99;99761.79;1702903;84;21393;-81
2023/01/18 01:57:38;;;;;;;30.72;21.23;;;;;;;7.36;99.86;99761.61;1702842;84;21249;-89
2023/01/18 02:00:46;;;;;;;32.20;21.93;;;;;;;7.34;99.76;99760.91;1703230;84;21756;-84
2023/01/18 02:03:53;;;;;;;31.93;20.77;;;;;;;7.32;99.70;99760.24;1702968;84;21790;-86
2023/01/18 02:06:59;;;;;;;28.95;20.35;;;;;;;7.35;99.61;99753.96;1702897;84;21209;-85
2023/01/18 02:10:05;;;;;;;30.92;19.20;;;;;;;7.47;99.19;99761.27;1702975;84;21784;-86
2023/01/18 02:13:14;;;;;;;28.42;19.50;;;;;;;7.49;98.73;99752.95;1703021;84;21253;-86
2023/01/18 02:17:05;;;;;;;32.65;20.70;;;;;;;7.58;98.44;99746.49;1703069;84;21205;-87
2023/01/18 02:20:45;;;;;;;33.00;20.57;;;;;;;7.56;98.27;99750.72;1701918;84;21252;-85
2023/01/18 02:23:56;;;;;;;26.73;18.92;;;;;;;7.58;97.89;99757.37;1693225;84;21338;-85
2023/01/18 02:27:11;;;;;;;;;;;;;;;7.48;98.04;99750.75;1704238;84;21209;-85
2023/01/18 02:30:25;;;;;;;30.97;19.90;;;;;;;7.52;98.11;99743.06;1703160;84;20220;-88
2023/01/18 02:33:49;;;;;;;35.05;20.08;;;;;;;7.45;98.35;99745.63;1703105;84;21209;-86
2023/01/18 02:37:00;;;;;;;30.32;19.48;;;;;;;7.52;98.38;99747.15;1703016;84;21221;-87
2023/01/18 02:40:27;;;;;;;29.32;20.20;;;;;;;7.47;98.41;99754.98;1702181;82;21240;-85
2023/01/18 02:46:56;;;;;;;31.23;19.23;;;;;;;7.37;99.00;99745.11;1701404;83;21748;-87
2023/01/18 02:50:04;;;;;;;30.43;19.12;;;;;;;7.44;98.29;99760.27;1702216;84;21292;-88
2023/01/18 02:53:10;;;;;;;32.03;19.62;;;;;;;7.57;97.61;99750.20;1701071;83;21213;-88
2023/01/18 02:56:26;;;;;;;27.90;18.67;;;;;;;7.55;97.44;99750.91;1703059;84;21256;-86
2023/01/18 02:59:48;;;;;;;26.23;18.67;;;;;;;7.62;97.17;99747.82;1702112;84;21197;-83
2023/01/18 03:02:54;;;;;;;31.33;19.23;;;;;;;7.58;96.99;99754.14;1703087;84;21185;-85
2023/01/18 03:06:01;;;;;;;34.10;18.95;;;;;;;7.52;97.20;99754.80;1702035;84;21795;-87
2023/01/18 03:09:00;;;;;;;30.08;18.15;;;;;;;7.52;97.45;99751.23;1701667;84;21795;-86
2023/01/18 03:12:19;;;;;;;30.27;20.25;;;;;;;7.52;97.56;99748.52;1703240;84;21204;-87
2023/01/18 03:15:38;;;;;;;28.47;19.42;;;;;;;7.75;95.90;99759.05;1702987;84;21216;-86
2023/01/18 03:19:03;;;;;;;32.70;18.35;;;;;;;7.56;96.35;99763.48;1701799;84;21253;-86
2023/01/18 03:22:09;;;;;;;34.18;21.05;;;;;;;7.66;95.62;99761.44;1702976;84;21303;-85
2023/01/18 03:25:15;;;;;;;30.10;19.35;;;;;;;7.79;94.95;99763.64;1702812;84;21194;-85
2023/01/18 03:35:46;;;;;;;32.65;20.45;;;;;;;8.09;91.77;99775.67;1669912;86;21308;-81
2023/01/18 03:38:53;;;;;;;31.00;21.33;;;;;;;7.97;91.90;99790.69;1669199;86;21331;-82
2023/01/18 03:42:02;;;;;;;36.70;22.25;;;;;;;7.82;92.57;99795.47;1669088;84;21775;-84
2023/01/18 03:45:21;;;;;;;29.27;19.07;;;;;;;8.12;91.55;99790.32;1669601;85;22626;-85
2023/01/18 03:48:27;;;;;;;34.70;21.40;;;;;;;8.01;91.91;99787.97;1670471;86;21299;-84
2023/01/18 03:51:42;;;;;;;33.73;21.23;;;;;;;7.89;91.60;99776.05;1681505;85;21634;-86
2023/01/18 03:55:17;;;;;;;34.83;20.25;;;;;;;7.78;92.41;99786.45;1681030;85;21757;-86
2023/01/18 03:58:27;;;;;;;32.53;20.17;;;;;;;7.92;91.58;99781.16;1682627;85;21222;-82
2023/01/18 04:01:33;;;;;;;33.10;19.75;;;;;;;7.96;91.10;99787.64;1682702;85;21205;-85
2023/01/18 04:04:40;;;;;;;35.38;21.87;;;;;;;7.99;90.70;99779.10;1672910;85;21214;-82
2023/01/18 04:07:45;;;;;;;32.08;20.65;;;;;;;8.02;90.43;99789.66;1671691;85;21285;-85
2023/01/18 04:10:51;;;;;;;34.43;21.25;;;;;;;7.99;90.23;99787.27;1671769;85;21251;-85
2023/01/18 04:13:58;;;;;;;32.28;22.07;;;;;;;7.93;90.23;99773.84;1672914;85;21205;-86
2023/01/18 04:17:04;;;;;;;35.20;21.42;;;;;;;7.76;90.63;99783.88;1670730;85;21237;-87
2023/01/18 04:20:12;;;;;;;38.13;22.05;;;;;;;7.84;90.60;99793.41;1669902;86;21235;-87
2023/01/18 04:23:17;;;;;;;32.88;21.27;;;;;;;7.78;90.71;99791.39;1682589;85;21261;-86
2023/01/18 04:26:24;;;;;;;32.75;21.10;;;;;;;7.74;90.81;99798.19;1682720;85;21261;-86
2023/01/18 04:29:29;;;;;;;36.75;21.90;;;;;;;7.72;90.90;99797.52;1682349;85;21230;-84
2023/01/18 04:32:35;;;;;;;34.35;21.52;;;;;;;7.97;89.43;99811.97;1682757;85;21202;-84
2023/01/18 04:35:41;;;;;;;35.52;21.27;;;;;;;7.88;89.64;99805.67;1682802;85;21265;-84
2023/01/18 04:38:47;;;;;;;36.38;20.23;;;;;;;7.86;89.30;99813.17;1682893;85;21213;-87
2023/01/18 04:41:52;;;;;;;34.70;21.40;;;;;;;7.72;89.90;99809.77;1682686;83;21296;-86
2023/01/18 04:44:59;;;;;;;36.58;21.65;;;;;;;7.67;90.00;99801.27;1681834;85;21348;-87
2023/01/18 04:47:59;;;;;;;36.33;21.48;;;;;;;7.78;89.75;99806.88;1681379;85;21202;-87
2023/01/18 04:51:05;;;;;;;38.45;21.87;;;;;;;7.81;89.21;99803.31;1681271;85;21242;-83
2023/01/18 04:54:11;;;;;;;33.65;21.90;;;;;;;7.80;89.30;99802.94;1682668;85;21170;-83
2023/01/18 04:57:16;;;;;;;37.85;22.22;;;;;;;7.84;88.89;99808.91;1682773;85;21855;-86
2023/01/18 05:00:22;;;;;;;32.93;21.07;;;;;;;7.77;88.79;99813.34;1682201;85;21209;-86
2023/01/18 05:03:29;;;;;;;33.50;20.80;;;;;;;7.52;89.12;99816.55;1682736;85;21194;-87
2023/01/18 05:06:35;;;;;;;32.00;20.12;;;;;;;7.87;88.78;99808.58;1682500;85;21828;-87
2023/01/18 05:09:41;;;;;;;34.45;21.12;;;;;;;7.76;88.25;99817.91;1681126;85;21290;-86
2023/01/18 05:12:48;;;;;;;31.20;20.10;;;;;;;7.62;88.42;99827.64;1682286;85;21210;-87
2023/01/18 05:15:55;;;;;;;40.03;20.88;;;;;;;7.63;88.97;99828.48;1681167;85;21221;-86
2023/01/18 05:19:03;;;;;;;34.75;21.62;;;;;;;7.66;88.81;99839.86;1681156;85;21214;-84
2023/01/18 05:22:08;;;;;;;31.77;20.70;;;;;;;7.89;87.77;99838.68;1681282;85;21550;-82
2023/01/18 05:25:14;;;;;;;31.15;21.07;;;;;;;8.03;86.92;99829.48;1682470;85;21210;-86
2023/01/18 05:28:19;;;;;;;33.42;20.97;;;;;;;8.10;86.25;99831.36;1682562;85;21573;-87
2023/01/18 05:31:26;;;;;;;33.75;21.02;;;;;;;7.90;86.81;99830.88;1681327;85;22055;-86
2023/01/18 05:34:33;;;;;;;32.75;20.70;;;;;;;7.96;86.51;99828.48;1687801;85;21206;-87
2023/01/18 05:37:39;;;;;;;35.65;21.97;;;;;;;7.86;86.74;99834.95;1686024;83;21290;-85
2023/01/18 05:40:45;;;;;;;33.88;20.72;;;;;;;7.79;87.56;99836.64;1679802;85;21249;-83
2023/01/18 05:43:50;;;;;;;35.78;21.40;;;;;;;7.73;88.07;99830.52;1670347;84;21786;-84
2023/01/18 05:46:55;;;;;;;38.65;22.58;;;;;;;7.73;88.35;99831.04;1683751;85;21222;-87
2023/01/18 05:50:01;;;;;;;36.45;21.50;;;;;;;7.91;87.66;99830.36;1674920;85;21473;-86
2023/01/18 05:53:08;;;;;;;38.17;22.42;;;;;;;8.10;86.71;99839.53;1678035;84;21840;-85
2023/01/18 05:56:14;;;;;;;33.53;20.75;;;;;;;7.99;86.45;99856.20;1679582;84;21180;-85
2023/01/18 05:59:20;;;;;;;33.20;20.55;;;;;;;8.07;86.08;99835.78;1671237;84;21674;-84
2023/01/18 06:02:25;;;;;;;31.97;20.68;;;;;;;8.05;86.06;99842.44;1646289;87;21897;-87
2023/01/18 06:05:31;;;;;;;36.65;21.73;;;;;;;8.00;86.03;99851.61;1674247;85;21219;-87
2023/01/18 06:08:36;;;;;;;34.33;20.75;;;;;;;8.03;85.96;99849.91;1644402;85;21284;-86
2023/01/18 06:11:42;;;;;;;30.88;20.17;;;;;;;8.01;85.89;99847.89;1687448;84;21172;-86
2023/01/18 06:14:49;;;;;;;29.37;19.50;;;;;;;8.15;85.44;99842.59;1672526;84;21759;-85
2023/01/18 06:17:58;;;;;;;35.25;19.95;;;;;;;8.14;84.73;99844.14;1646502;87;21878;-86
2023/01/18 06:21:03;;;;;;;33.40;19.92;;;;;;;8.08;84.82;99844.28;1673748;84;21191;-84
2023/01/18 06:24:08;;;;;;;33.78;20.48;;;;;;;8.02;85.30;99847.70;1645170;85;21202;-86
2023/01/18 06:27:17;;;;;;;33.55;20.10;;;;;;;8.00;85.33;99848.88;1672627;84;21213;-86
2023/01/18 06:30:25;;;;;;;38.90;20.90;;;;;;;8.09;84.98;99846.02;1651546;85;21194;-85
2023/01/18 06:33:32;;;;;;;34.73;20.72;;;;;;;8.23;84.47;99844.44;1668374;84;21194;-85
2023/01/18 06:36:38;;;;;;;35.15;20.10;;;;;;;8.16;84.32;99847.01;1646798;86;21263;-86
2023/01/18 06:39:44;;;;;;;33.90;19.32;;;;;;;8.26;84.11;99850.91;1676799;84;21791;-85
2023/01/18 06:42:49;;;;;;;34.65;20.05;;;;;;;8.36;83.07;99844.80;1646742;86;21264;-85
2023/01/18 06:46:06;;;;;;;31.93;19.87;;;;;;;8.25;83.30;99852.45;1652291;85;21372;-83
2023/01/18 06:49:13;;;;;;;32.93;20.43;;;;;;;8.22;83.30;99847.34;1645810;86;21295;-82
2023/01/18 06:52:18;;;;;;;32.50;20.45;;;;;;;8.20;83.15;99852.46;1670131;85;21226;-84
2023/01/18 06:55:24;;;;;;;32.83;19.37;;;;;;;8.20;82.92;99852.46;1671573;84;21783;-85
2023/01/18 06:58:32;;;;;;;30.30;19.23;;;;;;;8.15;82.87;99854.85;1676458;85;21570;-84
2023/01/18 07:01:37;;;;;;;34.80;20.62;;;;;;;8.27;82.57;99851.25;1679581;84;21211;-85
2023/01/18 07:04:44;;;;;;;29.80;20.32;;;;;;;8.06;83.05;99857.75;1671771;84;21223;-82
2023/01/18 07:07:50;;;;;;;30.00;18.27;;;;;;;8.00;83.46;99856.58;1640962;86;21326;-84
2023/01/18 07:10:56;;;;;;;32.17;20.62;;;;;;;8.10;83.46;99853.67;1651454;85;21601;-85
2023/01/18 07:14:01;;;;;;;31.80;19.17;;;;;;;8.18;83.25;99854.48;1654388;85;21252;-82
2023/01/18 07:17:07;;;;;;;28.85;19.00;;;;;;;8.03;83.45;99858.94;1685730;83;21326;-86
2023/01/18 07:20:14;;;;;;;33.13;19.42;;;;;;;7.97;84.14;99857.41;1677427;84;21196;-86
2023/01/18 07:23:20;;;;;;;29.98;20.12;;;;;;;8.08;84.06;99863.36;1677973;84;21200;-85
2023/01/18 07:26:26;;;;;;;32.67;19.17;;;;;;;8.02;84.30;99855.87;1676782;84;22427;-83
2023/01/18 07:29:32;;;;;;;32.93;19.52;;;;;;;8.15;84.31;99853.48;1678567;84;21223;-86
2023/01/18 07:32:38;;;;;;;35.48;20.27;;;;;;;8.36;83.29;99865.23;1655895;85;21199;-82
2023/01/18 07:35:44;;;;;;;31.70;19.77;;;;;;;8.29;83.80;99869.66;1678391;84;21215;-84
2023/01/18 07:38:49;;;;;;;31.68;19.25;;;;;;;8.40;83.55;99876.12;1678319;84;21227;-86
2023/01/18 07:41:56;;;;;;;32.30;19.73;;;;;;;8.42;83.39;99874.10;1674289;84;21815;-84
2023/01/18 07:45:01;;;;;;;34.30;18.87;;;;;;;8.44;83.42;99876.64;1673873;84;21257;-86
2023/01/18 07:48:06;;;;;;;32.20;20.02;;;;;;;8.52;83.01;99882.09;1656264;85;21850;-86
2023/01/18 07:51:13;;;;;;;28.55;17.90;;;;;;;8.50;83.08;99884.63;1657836;85;21762;-86
2023/01/18 07:54:19;;;;;;;32.30;18.90;;;;;;;8.59;82.70;99889.89;1662330;85;21193;-86
2023/01/18 07:57:25;;;;;;;25.08;16.90;;;;;;;8.73;82.20;99892.94;1655271;85;21249;-86
2023/01/18 08:00:33;;;;;;;32.88;20.17;;;;;;;8.70;82.13;99889.55;1639353;86;21241;-86
2023/01/18 08:03:40;;;;;;;35.38;19.55;;;;;;;8.84;81.62;99905.67;1635378;86;21163;-85
2023/01/18 08:06:46;;;;;;;28.85;18.60;;;;;;;8.74;81.69;99905.02;1640910;86;21140;-83
2023/01/18 08:09:51;;;;;;;33.65;18.65;;;;;;;8.78;81.48;99903.65;1659834;85;21271;-84
2023/01/18 08:12:56;;;;;;;34.13;20.23;;;;;;;8.73;81.79;99882.03;1653769;85;21283;-87
2023/01/18 08:16:04;;;;;;;29.60;18.92;;;;;;;8.77;81.89;99886.95;1655953;85;21192;-85
2023/01/18 08:19:09;;;;;;;31.90;19.90;;;;;;;8.79;81.89;99887.62;1657703;85;21203;-86
2023/01/18 08:22:14;;;;;;;36.75;21.30;;;;;;;8.65;82.56;99889.70;1655111;85;21211;-86
2023/01/18 08:25:22;;;;;;;32.40;21.37;;;;;;;8.48;83.12;99882.09;1654355;86;21208;-87
2023/01/18 08:28:28;;;;;;;34.73;20.05;;;;;;;8.49;83.14;99878.84;1657012;85;21197;-82
2023/01/18 08:31:27;;;;;;;34.45;19.17;;;;;;;8.58;83.35;99883.27;1659531;86;21188;-83
2023/01/18 08:34:33;;;;;;;37.58;21.48;;;;;;;8.69;82.67;99878.79;1658160;85;21284;-82
2023/01/18 08:37:39;;;;;;;37.00;22.05;;;;;;;8.64;82.87;99881.19;1659074;85;21222;-84
2023/01/18 08:40:46;;;;;;;33.30;20.72;;;;;;;8.50;83.45;99866.40;1654640;85;21297;-87
2023/01/18 08:43:51;;;;;;;39.40;21.90;;;;;;;8.54;83.52;99886.84;1655392;85;21213;-84
2023/01/18 08:46:57;;;;;;;33.42;21.30;;;;;;;8.46;83.93;99871.86;1658807;84;21334;-84
2023/01/18 08:50:03;;;;;;;34.25;20.43;;;;;;;8.66;83.36;99889.55;1683033;84;21188;-85
2023/01/18 08:53:09;;;;;;;37.78;20.27;;;;;;;8.64;83.69;99888.01;1649766;86;21540;-82
2023/01/18 08:56:16;;;;;;;38.42;20.80;;;;;;;8.45;84.01;99881.06;1659779;85;21243;-85
2023/01/18 08:59:22;;;;;;;35.20;20.27;;;;;;;8.29;84.66;99903.72;1674660;84;21251;-86
2023/01/18 09:02:27;;;;;;;41.53;20.92;;;;;;;8.14;85.25;99898.62;1688282;83;21350;-82
2023/01/18 09:05:33;;;;;;;36.15;21.62;;;;;;;8.07;85.83;99896.22;1684770;83;21708;-86
2023/01/18 09:08:37;;;;;;;40.90;22.32;;;;;;;7.91;87.18;99892.48;1672844;84;21267;-82
2023/01/18 09:11:37;;;;;;;39.50;20.85;;;;;;;7.82;87.85;99894.86;1677588;84;21226;-83
2023/01/18 09:14:29;;;;;;;37.83;20.52;;;;;;;7.79;88.23;99891.61;1676299;84;21251;-86
2023/01/18 09:17:20;;;;;;;35.03;21.55;;;;;;;7.78;88.67;99889.41;1676833;84;21256;-85
2023/01/18 09:20:13;;;;;;;32.65;21.60;;;;;;;7.73;89.07;99894.50;1682912;84;21195;-87
2023/01/18 09:23:20;;;;;;;36.17;21.82;;;;;;;7.74;89.28;99883.10;1649747;84;21249;-84
2023/01/18 09:26:27;;;;;;;38.67;22.70;;;;;;;7.93;88.85;99867.80;1680866;84;21223;-81
2023/01/18 09:29:33;;;;;;;34.90;20.92;;;;;;;7.86;88.94;99877.16;1656257;85;22160;-83
2023/01/18 09:32:40;;;;;;;41.65;21.73;;;;;;;7.74;90.07;99870.34;1681886;84;21216;-81
2023/01/18 09:35:47;;;;;;;38.63;22.40;;;;;;;7.56;91.30;99870.98;1677728;84;21197;-85
2023/01/18 16:03:57;;;;;;;44.30;26.87;;;;;;;6.75;100.00;99912.34;1897979;75;22212;-78
2023/01/18 16:07:04;;;;;;;43.23;26.57;;;;;;;6.82;100.00;99911.55;1855665;77;21748;-85
2023/01/18 16:10:32;;;;;;;41.15;24.92;;;;;;;6.82;100.00;99922.43;1856008;77;21175;-82
2023/01/18 16:13:45;;;;;;;43.38;26.33;;;;;;;6.91;100.00;99928.22;1854693;76;21175;-78
2023/01/18 16:16:51;;;;;;;44.93;24.82;;;;;;;7.22;100.00;99926.34;1856146;77;21203;-83
2023/01/18 16:20:00;;;;;;;41.92;25.17;;;;;;;7.42;100.00;99934.56;1856033;77;21141;-83
2023/01/18 16:23:17;;;;;;;42.23;24.70;;;;;;;7.51;100.00;99949.56;1854886;77;21149;-83
2023/01/18 16:26:27;;;;;;;45.03;25.43;;;;;;;7.49;100.00;99941.58;1856109;77;21180;-84
2023/01/18 16:29:32;;;;;;;41.98;25.15;;;;;;;7.37;100.00;99932.84;1855923;77;21188;-78
2023/01/18 16:32:42;;;;;;;45.58;25.92;;;;;;;7.49;100.00;99943.45;1854424;77;21175;-84
2023/01/18 16:35:47;;;;;;;40.45;24.40;;;;;;;7.62;100.00;99939.72;1855943;77;21689;-84
2023/01/18 16:38:54;;;;;;;46.13;25.10;;;;;;;7.36;100.00;99936.59;1856194;77;21089;-82
2023/01/18 16:42:03;;;;;;;48.80;26.27;;;;;;;7.46;100.00;99933.73;1855049;77;21759;-78
2023/01/18 16:45:09;;;;;;;46.45;25.55;;;;;;;7.23;100.00;99933.98;1855607;77;21145;-78
2023/01/18 16:48:18;;;;;;;43.15;25.60;;;;;;;7.41;100.00;99934.23;1854635;77;21733;-78
2023/01/18 16:51:27;;;;;;;46.28;25.12;;;;;;;7.46;100.00;99933.73;1853543;77;21307;-78
2023/01/18 16:54:32;;;;;;;39.30;23.02;;;;;;;7.06;100.00;99931.73;1855299;77;21149;-79
2023/01/18 16:57:38;;;;;;;45.83;25.32;;;;;;;7.03;100.00;99955.16;1854409;77;21161;-85
2023/01/18 17:01:09;;;;;;;36.15;24.35;;;;;;;7.16;100.00;99971.88;1854914;77;21703;-80
2023/01/18 17:04:14;;;;;;;37.95;23.90;;;;;;;7.22;100.00;99980.75;1853588;77;21188;-85
2023/01/18 17:07:19;;;;;;;37.00;23.73;;;;;;;7.13;100.00;99983.08;1855513;77;21172;-79
2023/01/18 17:10:35;;;;;;;37.53;23.40;;;;;;;6.89;100.00;99979.20;1856152;77;21156;-81
2023/01/18 17:13:40;;;;;;;38.40;23.18;;;;;;;6.93;100.00;99997.42;1853805;77;21726;-79
2023/01/18 17:16:48;;;;;;;45.43;24.92;;;;;;;6.61;100.00;99996.69;1855324;77;21175;-86
2023/01/18 17:19:54;;;;;;;38.33;23.95;;;;;;;6.72;100.00;99992.34;1855543;77;21677;-86
2023/01/18 17:23:02;;;;;;;42.13;24.50;;;;;;;6.79;100.00;99993.92;1854133;77;21153;-85
2023/01/18 17:26:07;;;;;;;40.73;24.43;;;;;;;6.87;100.00;99989.91;1855260;77;21133;-79
2023/01/18 17:29:12;;;;;;;43.70;24.85;;;;;;;6.58;100.00;99980.69;1855116;77;21716;-82
2023/01/18 17:32:19;;;;;;;45.33;24.27;;;;;;;6.53;100.00;99980.31;1855357;77;21188;-79
2023/01/18 17:35:27;;;;;;;41.30;24.85;;;;;;;6.49;100.00;99997.42;1855225;77;21141;-86
2023/01/18 17:38:33;;;;;;;44.13;24.75;;;;;;;6.34;100.00;99991.70;1855386;77;21137;-80
2023/01/18 17:41:39;;;;;;;47.93;26.97;;;;;;;6.24;100.00;99995.02;1855256;77;21171;-80
2023/01/18 17:44:45;;;;;;;39.35;25.15;;;;;;;6.39;100.00;99990.73;1854804;77;21172;-79
2023/01/18 17:47:52;;;;;;;43.90;26.62;;;;;;;6.34;100.00;99990.86;1854636;77;21169;-79
2023/01/18 17:50:58;;;;;;;46.02;25.50;;;;;;;6.25;100.00;99991.28;1855049;77;21137;-79
2023/01/18 17:54:03;;;;;;;47.93;27.45;;;;;;;6.19;100.00;99997.35;1854321;77;21137;-79
2023/01/18 17:57:10;;;;;;;51.95;28.23;;;;;;;6.10;100.00;99971.13;1854690;77;21224;-84
2023/01/18 18:00:17;;;;;;;48.08;26.87;;;;;;;6.17;100.00;99979.02;1854884;77;21144;-79
2023/01/18 18:03:22;;;;;;;48.35;27.52;;;;;;;6.29;100.00;99965.52;1853450;77;21187;-82
2023/01/18 18:06:31;;;;;;;51.55;27.30;;;;;;;6.35;100.00;99949.97;1854861;77;21180;-80
2023/01/18 18:09:39;;;;;;;50.20;26.27;;;;;;;6.45;100.00;99968.05;1854230;77;21152;-79
2023/01/18 18:12:44;;;;;;;49.13;29.18;;;;;;;6.41;100.00;99974.29;1854094;77;21159;-81
2023/01/18 18:15:55;;;;;;;44.77;26.52;;;;;;;6.51;100.00;99978.27;1853391;77;21176;-81
2023/01/18 18:19:00;;;;;;;52.45;29.80;;;;;;;6.50;100.00;99980.65;1853572;77;21223;-80
2023/01/18 18:22:07;;;;;;;47.03;27.90;;;;;;;6.55;100.00;99979.16;1853277;77;21741;-79
2023/01/18 18:25:13;;;;;;;55.43;29.55;;;;;;;6.25;100.00;99987.72;1852270;77;21157;-79
2023/01/18 18:28:23;;;;;;;47.15;27.07;;;;;;;6.34;100.00;99974.05;1852496;77;21209;-83
2023/01/18 18:31:28;;;;;;;45.38;26.30;;;;;;;6.20;100.00;99973.25;1853748;77;21164;-84
2023/01/18 18:34:35;;;;;;;45.78;27.93;;;;;;;6.27;100.00;99979.78;1852933;77;21779;-78
2023/01/18 18:37:43;;;;;;;44.90;27.27;;;;;;;6.23;100.00;99977.53;1852679;77;21764;-79
2023/01/18 18:40:49;;;;;;;45.67;27.67;;;;;;;6.14;100.00;99984.75;1853795;77;21682;-80
2023/01/18 18:43:56;;;;;;;52.65;28.42;;;;;;;6.38;100.00;99952.86;1860993;76;21168;-80
2023/01/18 18:47:02;;;;;;;59.03;29.18;;;;;;;6.48;100.00;99951.41;1888141;76;21738;-82
2023/01/18 18:50:07;;;;;;;48.87;27.50;;;;;;;6.37;100.00;99945.22;1888954;76;21144;-83
2023/01/18 18:53:12;;;;;;;50.83;27.87;;;;;;;6.42;100.00;99970.56;1816963;79;21207;-83
2023/01/18 18:56:20;;;;;;;50.50;28.60;;;;;;;6.55;100.00;99957.92;1787921;79;21140;-82
2023/01/18 18:59:27;;;;;;;53.15;30.12;;;;;;;6.47;100.00;99966.00;1850706;77;21140;-80
2023/01/18 19:02:32;;;;;;;48.28;28.50;;;;;;;6.47;100.00;99959.22;1817454;79;21203;-81
2023/01/18 19:05:39;;;;;;;45.83;27.27;;;;;;;6.47;100.00;99949.70;1846111;77;21204;-81
2023/01/18 19:08:45;;;;;;;54.88;29.55;;;;;;;6.46;100.00;99958.88;1766802;81;21183;-82
2023/01/18 19:11:50;;;;;;;52.33;28.57;;;;;;;6.49;100.00;99974.33;1797852;79;21745;-82
2023/01/18 19:14:56;;;;;;;47.17;27.20;;;;;;;6.36;100.00;99958.46;1797943;80;21157;-83
2023/01/18 19:18:01;;;;;;;51.80;25.72;;;;;;;6.27;100.00;99950.41;1797893;79;21211;-80
2023/01/18 19:21:07;;;;;;;47.35;26.30;;;;;;;6.32;100.00;99968.44;1766657;81;21240;-80
2023/01/18 19:24:13;;;;;;;47.48;26.97;;;;;;;6.48;100.00;99966.34;1797793;80;21149;-83
2023/01/18 19:27:20;;;;;;;46.02;27.22;;;;;;;6.51;100.00;99961.45;1797836;80;21199;-84
2023/01/18 19:30:25;;;;;;;47.17;26.68;;;;;;;6.45;100.00;99966.17;1766980;81;21153;-80
2023/01/18 19:33:31;;;;;;;53.13;28.25;;;;;;;6.42;100.00;99965.63;1797855;79;21804;-84
2023/01/18 19:36:37;;;;;;;49.90;27.55;;;;;;;6.49;100.00;99953.10;1796668;80;21224;-84
2023/01/18 19:39:42;;;;;;;50.40;28.47;;;;;;;6.45;100.00;99956.67;1766755;81;21161;-81
2023/01/18 19:42:53;;;;;;;50.40;26.48;;;;;;;6.50;100.00;99956.19;1797914;79;21199;-81
2023/01/18 19:45:57;;;;;;;53.50;28.55;;;;;;;6.58;100.00;99963.02;1797877;80;21188;-83
2023/01/18 19:49:04;;;;;;;53.52;27.22;;;;;;;6.66;100.00;99946.78;1797916;80;21188;-85
2023/01/18 19:52:09;;;;;;;47.17;27.02;;;;;;;6.63;100.00;99948.45;1766629;81;21176;-81
2023/01/18 19:55:17;;;;;;;47.20;26.25;;;;;;;6.62;100.00;99942.67;1797941;80;21721;-80
2023/01/18 19:58:22;;;;;;;49.15;27.98;;;;;;;6.52;100.00;99947.36;1797942;80;21192;-88
2023/01/18 20:01:28;;;;;;;44.65;27.35;;;;;;;6.47;100.00;99956.50;1797762;80;21160;-79
2023/01/18 20:04:36;;;;;;;50.92;28.25;;;;;;;6.55;100.00;99955.20;1797871;80;21200;-79
2023/01/18 20:07:45;;;;;;;47.55;27.98;;;;;;;6.46;100.00;99966.52;1810998;78;21163;-82
2023/01/18 20:10:51;;;;;;;47.88;26.97;;;;;;;6.63;100.00;99968.83;1855427;77;21136;-82
2023/01/18 20:13:56;;;;;;;48.80;27.80;;;;;;;6.58;100.00;99984.77;1823455;78;21192;-81
2023/01/18 20:17:02;;;;;;;50.15;26.62;;;;;;;6.61;100.00;99959.99;1856728;77;21180;-82
2023/01/18 20:20:08;;;;;;;51.13;26.93;;;;;;;6.65;100.00;99989.92;1823584;78;21153;-79
2023/01/18 20:23:15;;;;;;;45.88;25.00;;;;;;;6.53;100.00;99994.75;1823139;78;21191;-82
2023/01/18 20:26:22;;;;;;;52.60;28.17;;;;;;;6.63;100.00;100001.44;1823492;78;21709;-83
2023/01/18 20:29:29;;;;;;;41.35;24.82;;;;;;;6.76;100.00;100007.83;1857021;77;21136;-81
2023/01/18 20:32:36;;;;;;;43.38;25.95;;;;;;;6.60;100.00;100005.85;1822833;78;21179;-78
2023/01/18 20:35:40;;;;;;;47.00;26.25;;;;;;;6.61;100.00;100015.20;1823076;78;21234;-79
2023/01/18 20:38:46;;;;;;;48.78;25.60;;;;;;;6.68;100.00;100030.86;1823654;78;21173;-78
2023/01/18 20:41:52;;;;;;;44.90;26.90;;;;;;;6.74;100.00;100020.23;1823446;78;21215;-87
2023/01/18 20:44:59;;;;;;;49.48;27.48;;;;;;;6.62;100.00;100014.18;1823505;78;21133;-85
2023/01/18 20:48:04;;;;;;;45.10;25.95;;;;;;;6.63;100.00;100010.48;1822322;78;21739;-79
2023/01/18 20:51:10;;;;;;;42.20;25.35;;;;;;;6.59;100.00;100019.10;1823417;78;21156;-84
2023/01/18 20:54:18;;;;;;;47.85;25.60;;;;;;;6.56;100.00;100012.61;1823576;78;21709;-83
2023/01/18 20:57:26;;;;;;;46.20;26.50;;;;;;;6.53;100.00;100004.77;1823055;78;21196;-83
2023/01/18 21:00:32;;;;;;;50.05;26.57;;;;;;;6.65;100.00;100000.80;1823534;78;21137;-83
2023/01/18 21:03:37;;;;;;;49.65;25.75;;;;;;;6.72;100.00;99992.84;1823501;78;21769;-80
2023/01/18 21:06:43;;;;;;;45.75;26.30;;;;;;;6.70;100.00;99994.37;1823497;78;21184;-83
2023/01/18 21:09:50;;;;;;;49.40;27.05;;;;;;;6.76;100.00;99999.16;1823621;78;21163;-83
2023/01/18 21:12:55;;;;;;;47.93;25.90;;;;;;;6.96;100.00;100003.02;1800785;78;21772;-80
2023/01/18 21:16:03;;;;;;;42.83;24.98;;;;;;;6.88;100.00;99987.02;1823632;78;21728;-83
2023/01/18 21:19:13;;;;;;;42.93;27.48;;;;;;;6.86;100.00;99995.83;1823562;78;21149;-80